Time;durP1;ratioP1;P1;durP2;ratioP2;P2;SDS_P1;SDS_P2;PMS_P1;PMS_P2;Temp;Humidity;BMP_temperature;BMP_pressure;BME280_temperature;BME280_humidity;BME280_pressure;Samples;Min_cycle;Max_cycle;Signal;HPM_P1;HPM_P2
2020/12/12 00:01:58;;;;;;;12.98;9.60;;;5.10;99.90;;;5.97;84.69;98298.53;5033991;28;20065;-83
2020/12/12 00:04:25;;;;;;;14.60;9.77;;;5.10;99.90;;;5.98;84.55;98297.34;5029722;28;20041;-82
2020/12/12 00:06:52;;;;;;;14.02;9.15;;;5.10;99.90;;;5.86;84.84;98298.44;5017860;28;20143;-83
2020/12/12 00:09:22;;;;;;;11.85;8.70;;;5.10;99.90;;;5.92;84.66;98293.34;4999424;28;20025;-82
2020/12/12 00:11:49;;;;;;;14.80;9.48;;;5.20;99.90;;;6.03;84.18;98299.78;5017010;28;20057;-82
2020/12/12 00:14:17;;;;;;;12.10;8.90;;;5.20;99.90;;;5.96;84.08;98299.72;5016486;28;20121;-84
2020/12/12 00:16:44;;;;;;;15.27;9.23;;;5.20;99.90;;;6.09;84.23;98303.78;4998555;28;20057;-81
2020/12/12 00:19:12;;;;;;;12.57;8.93;;;5.20;99.90;;;6.10;83.90;98302.59;5014816;28;20038;-85
2020/12/12 00:21:38;;;;;;;11.95;8.52;;;5.20;99.90;;;6.09;84.14;98304.56;4997894;28;20030;-84
2020/12/12 00:24:04;;;;;;;13.77;9.13;;;5.30;99.90;;;6.00;84.48;98306.88;5015292;28;20674;-83
2020/12/12 00:49:57;;;;;;;13.23;9.25;;;5.30;99.90;;;5.96;84.39;98286.66;4987398;28;20383;-79
2020/12/12 00:52:23;;;;;;;15.00;9.23;;;5.30;99.90;;;6.15;84.07;98296.69;4975942;28;20033;-79
2020/12/12 00:54:49;;;;;;;13.32;8.63;;;5.30;99.90;;;6.22;83.93;98314.16;4976814;28;20121;-80
2020/12/12 00:57:17;;;;;;;12.50;8.70;;;5.30;99.90;;;6.25;83.80;98309.81;4975392;28;20062;-79
2020/12/12 00:59:44;;;;;;;11.45;7.65;;;5.30;99.90;;;6.26;83.57;98320.50;4975036;28;20030;-79
2020/12/12 01:02:10;;;;;;;11.48;7.95;;;5.30;99.90;;;6.19;83.92;98320.50;4981687;28;20035;-82
2020/12/12 01:04:36;;;;;;;12.45;8.40;;;5.30;99.90;;;6.18;84.09;98312.53;4981766;28;20471;-80
2020/12/12 01:07:02;;;;;;;11.10;7.38;;;5.20;99.90;;;6.17;84.23;98316.50;4981075;28;20035;-81
2020/12/12 01:09:28;;;;;;;12.13;9.05;;;5.30;99.90;;;6.10;84.77;98317.22;4980978;28;20390;-80
2020/12/12 01:11:56;;;;;;;11.73;8.13;;;5.30;99.90;;;6.11;84.96;98324.38;4981490;28;20026;-81
2020/12/12 01:14:22;;;;;;;13.82;9.20;;;5.30;99.90;;;6.16;84.80;98318.50;4979178;28;20031;-78
2020/12/12 01:16:48;;;;;;;12.48;8.30;;;5.30;99.90;;;6.21;84.45;98325.63;4992672;28;20026;-78
2020/12/12 01:19:14;;;;;;;13.75;8.93;;;5.30;99.90;;;6.15;84.87;98316.09;4977962;28;20033;-81
2020/12/12 01:21:40;;;;;;;11.98;8.05;;;5.30;99.90;;;6.20;84.88;98324.81;4977226;28;20121;-81
2020/12/12 01:24:06;;;;;;;11.00;7.75;;;5.30;99.90;;;6.23;84.58;98326.81;4992462;28;20034;-78
2020/12/12 01:26:32;;;;;;;12.10;8.00;;;5.30;99.90;;;6.22;84.67;98325.25;4977725;28;20443;-80
2020/12/12 01:28:59;;;;;;;12.32;7.95;;;5.40;99.90;;;6.29;84.53;98325.28;4992757;28;20093;-78
2020/12/12 01:31:26;;;;;;;12.80;8.93;;;5.40;99.90;;;6.20;85.33;98324.81;4975796;28;20449;-80
2020/12/12 01:33:52;;;;;;;11.70;8.18;;;5.40;99.90;;;6.28;84.89;98322.91;4977039;28;20394;-81
2020/12/12 01:36:18;;;;;;;12.90;8.27;;;5.50;99.90;;;6.40;84.73;98327.34;4992325;28;20035;-80
2020/12/12 01:38:44;;;;;;;10.55;7.50;;;5.40;99.90;;;6.33;84.45;98325.31;4993083;28;20031;-79
2020/12/12 01:41:11;;;;;;;12.18;8.38;;;5.50;99.90;;;6.28;85.15;98336.78;4977853;28;20097;-79
2020/12/12 01:43:37;;;;;;;12.55;7.85;;;5.50;99.90;;;6.37;84.96;98331.69;4977520;28;20033;-80
2020/12/12 01:46:03;;;;;;;11.57;7.88;;;5.50;99.90;;;6.29;85.26;98330.06;4977209;28;20035;-80
2020/12/12 01:48:29;;;;;;;13.30;8.30;;;5.50;99.90;;;6.35;85.42;98337.63;4977214;28;20031;-81
2020/12/12 01:50:57;;;;;;;12.27;8.40;;;5.60;99.90;;;6.38;85.07;98338.03;4977252;28;20513;-80
2020/12/12 01:53:26;;;;;;;11.82;8.30;;;5.60;99.90;;;6.34;84.98;98340.78;4977351;28;20023;-79
2020/12/12 01:55:51;;;;;;;10.05;7.35;;;5.60;99.90;;;6.42;84.92;98342.44;4976135;28;20405;-80
2020/12/12 01:58:17;;;;;;;13.43;7.80;;;5.60;99.90;;;6.40;84.98;98346.75;4976494;28;20115;-79
2020/12/12 02:00:43;;;;;;;11.40;7.70;;;5.60;99.90;;;6.44;84.91;98342.81;4977171;28;20102;-80
2020/12/12 02:03:12;;;;;;;12.48;9.13;;;5.70;99.90;;;6.41;84.98;98342.78;4977021;28;20474;-81
2020/12/12 02:05:38;;;;;;;13.45;9.02;;;5.70;99.90;;;6.26;86.17;98337.16;4977055;28;20038;-81
2020/12/12 02:08:15;;;;;;;15.90;9.70;;;5.70;99.90;;;6.20;87.55;98348.97;4976711;28;20485;-81
2020/12/12 02:10:45;;;;;;;16.42;8.82;;;5.60;99.90;;;6.22;87.91;98346.63;4991653;28;20057;-80
2020/12/12 02:13:13;;;;;;;15.23;9.35;;;5.60;99.90;;;6.17;88.90;98358.06;4976668;28;20023;-80
2020/12/12 02:15:41;;;;;;;16.30;9.90;;;5.60;99.90;;;6.13;89.73;98351.72;4992185;28;20374;-80
2020/12/12 02:18:23;;;;;;;16.23;9.40;;;5.50;99.90;;;5.95;90.90;98356.28;4977081;28;20418;-81
2020/12/12 02:21:01;;;;;;;17.15;10.75;;;5.40;99.90;;;6.02;91.32;98350.81;4976410;28;20478;-80
2020/12/12 02:23:28;;;;;;;17.52;10.77;;;5.40;99.90;;;6.10;90.75;98349.72;4990858;28;20034;-82
2020/12/12 02:25:57;;;;;;;17.65;10.32;;;5.30;99.90;;;5.95;91.63;98359.06;4991212;28;20066;-81
2020/12/12 02:28:56;;;;;;;16.92;10.45;;;5.30;99.90;;;5.88;91.88;98359.00;4976671;28;20042;-82
2020/12/12 02:31:15;;;;;;;17.23;11.23;;;5.30;99.90;;;5.92;92.54;98357.06;4973254;28;20130;-81
2020/12/12 02:33:42;;;;;;;19.88;11.48;;;5.30;99.90;;;5.87;92.79;98361.00;4976710;28;20570;-82
2020/12/12 02:36:08;;;;;;;19.45;12.15;;;5.20;99.90;;;5.93;92.63;98356.69;4976898;28;20054;-80
2020/12/12 02:38:34;;;;;;;18.98;11.35;;;5.20;99.90;;;5.93;92.60;98356.69;4976424;28;20046;-81
2020/12/12 02:41:00;;;;;;;19.20;11.90;;;5.20;99.90;;;6.05;92.33;98363.91;4976871;28;20026;-82
2020/12/12 02:43:26;;;;;;;18.60;11.85;;;5.20;99.90;;;5.79;93.29;98353.75;4993059;28;20093;-81
2020/12/12 02:45:52;;;;;;;19.20;12.35;;;5.20;99.90;;;5.79;93.36;98348.22;4978474;28;20374;-80
2020/12/12 02:48:18;;;;;;;20.85;12.55;;;5.20;99.90;;;5.75;94.00;98348.19;4978041;28;20037;-81
2020/12/12 02:50:44;;;;;;;20.52;12.27;;;5.20;99.90;;;5.73;93.74;98349.75;4993075;28;20033;-82
2020/12/12 02:53:10;;;;;;;21.13;12.13;;;5.20;99.90;;;5.66;94.02;98350.47;4977191;28;20157;-79
2020/12/12 02:55:36;;;;;;;21.67;12.40;;;5.10;99.90;;;5.77;94.25;98356.91;4977510;28;20062;-81
2020/12/12 02:58:02;;;;;;;20.58;12.80;;;5.20;99.90;;;5.79;94.07;98357.31;4992351;28;20105;-83
2020/12/12 03:00:28;;;;;;;20.35;12.57;;;5.10;99.90;;;5.90;93.78;98351.91;4977749;28;20386;-81
2020/12/12 03:02:54;;;;;;;21.88;13.13;;;5.10;99.90;;;5.79;93.65;98346.25;4977329;28;20066;-82
2020/12/12 03:05:21;;;;;;;22.17;13.55;;;5.10;99.90;;;5.70;93.65;98356.84;5003599;28;20031;-81
2020/12/12 03:07:47;;;;;;;18.65;12.23;;;5.20;99.90;;;5.66;93.29;98352.44;4984251;28;20031;-81
2020/12/12 03:10:13;;;;;;;20.58;12.40;;;5.20;99.90;;;5.87;92.73;98363.75;4991635;28;20035;-82
2020/12/12 03:12:39;;;;;;;19.23;12.05;;;5.20;99.90;;;5.78;92.62;98344.63;4975596;28;20122;-82
2020/12/12 03:15:09;;;;;;;22.13;12.45;;;5.20;99.90;;;5.90;92.27;98360.22;4975763;28;20059;-81
2020/12/12 03:17:36;;;;;;;21.23;11.93;;;5.20;99.90;;;5.90;91.89;98362.19;4976033;28;20027;-81
2020/12/12 03:20:07;;;;;;;21.88;12.77;;;5.20;99.90;;;5.89;91.75;98361.41;4990362;28;20034;-80
2020/12/12 03:22:34;;;;;;;21.38;12.68;;;5.20;99.90;;;5.91;91.36;98350.72;4976215;28;20031;-80
2020/12/12 03:25:03;;;;;;;20.02;11.40;;;5.30;99.90;;;6.00;91.21;98361.50;4975299;28;20030;-79
2020/12/12 03:27:28;;;;;;;20.48;10.80;;;5.30;99.90;;;5.96;91.40;98363.44;4976191;28;20542;-80
2020/12/12 03:29:54;;;;;;;23.63;12.73;;;5.30;99.90;;;5.96;91.60;98357.91;4976077;28;20073;-81
2020/12/12 03:32:20;;;;;;;21.88;12.38;;;5.30;99.90;;;5.95;91.74;98359.88;4976090;28;20434;-80
2020/12/12 03:34:46;;;;;;;17.55;11.32;;;5.30;99.90;;;6.00;91.36;98362.31;4975705;28;20038;-82
2020/12/12 03:37:12;;;;;;;17.42;10.73;;;5.40;99.90;;;6.06;91.43;98373.81;4975691;28;20034;-80
2020/12/12 03:39:40;;;;;;;19.80;11.82;;;5.30;99.90;;;5.98;91.14;98363.84;4974245;28;20122;-80
2020/12/12 03:42:06;;;;;;;20.88;12.02;;;5.40;99.90;;;6.08;91.23;98374.22;4991216;28;20042;-83
2020/12/12 03:44:34;;;;;;;17.80;10.75;;;5.40;99.90;;;6.10;91.08;98378.19;4990033;28;20040;-79
2020/12/12 03:47:00;;;;;;;19.75;11.27;;;5.40;99.90;;;6.05;90.94;98370.25;4975623;28;20406;-80
2020/12/12 03:49:25;;;;;;;15.82;10.00;;;5.40;99.90;;;6.03;91.33;98380.13;4975615;28;20035;-80
2020/12/12 03:51:51;;;;;;;18.50;11.02;;;5.40;99.90;;;6.19;90.61;98369.56;4990949;28;20038;-79
2020/12/12 03:54:17;;;;;;;17.83;10.38;;;5.40;99.90;;;6.15;90.28;98382.59;4975970;28;20034;-80
2020/12/12 03:56:43;;;;;;;16.73;10.23;;;5.40;99.90;;;6.28;90.30;98392.22;4974461;28;20284;-80
2020/12/12 03:59:09;;;;;;;16.60;10.32;;;5.40;99.90;;;6.17;90.02;98394.88;4974529;28;20098;-81
2020/12/12 04:01:35;;;;;;;16.63;10.07;;;5.40;99.90;;;6.20;89.81;98388.56;4975749;28;20475;-81
2020/12/12 04:04:01;;;;;;;16.13;9.15;;;5.40;99.90;;;6.18;90.23;98381.81;4976097;28;20118;-80
2020/12/12 04:06:27;;;;;;;16.20;9.85;;;5.40;99.90;;;6.12;89.99;98380.59;4990756;28;20035;-81
2020/12/12 04:08:52;;;;;;;15.43;9.18;;;5.40;99.90;;;6.24;90.24;98389.41;4975608;28;20095;-80
2020/12/12 04:11:18;;;;;;;17.00;9.43;;;5.30;99.90;;;6.22;90.05;98390.97;4975439;28;20046;-80
2020/12/12 04:13:44;;;;;;;16.55;9.95;;;5.40;99.90;;;6.17;90.47;98394.09;4990506;28;20403;-79
2020/12/12 04:16:10;;;;;;;15.95;9.68;;;5.40;99.90;;;6.25;90.13;98401.28;4990192;28;20034;-80
2020/12/12 04:18:36;;;;;;;14.77;9.02;;;5.40;99.90;;;6.17;90.58;98391.31;4990117;28;20031;-79
2020/12/12 04:21:02;;;;;;;15.55;8.95;;;5.40;99.90;;;6.20;90.53;98393.31;4975453;28;20042;-79
2020/12/12 04:23:28;;;;;;;14.25;9.07;;;5.40;99.90;;;6.23;90.34;98392.56;4975755;28;20083;-80
2020/12/12 04:25:54;;;;;;;15.80;9.45;;;5.40;99.90;;;6.25;89.88;98401.28;4975619;28;20066;-80
2020/12/12 04:28:20;;;;;;;15.00;9.63;;;5.40;99.90;;;6.14;90.37;98401.19;4976208;28;20471;-80
2020/12/12 04:30:45;;;;;;;16.17;9.25;;;5.40;99.90;;;6.13;89.78;98402.38;4976360;28;20110;-80
2020/12/12 04:33:11;;;;;;;12.77;8.10;;;5.40;99.90;;;6.14;90.16;98395.66;4976387;28;20132;-80
2020/12/12 04:35:37;;;;;;;13.10;8.00;;;5.40;99.90;;;6.14;89.60;98392.88;4993126;28;20035;-79
2020/12/12 04:38:03;;;;;;;13.43;8.95;;;5.40;99.90;;;6.11;90.17;98398.38;4979978;28;20039;-82
2020/12/12 04:40:31;;;;;;;16.75;8.73;;;5.40;99.90;;;6.15;90.02;98404.78;4980493;28;20526;-81
2020/12/12 04:43:01;;;;;;;12.70;8.13;;;5.50;99.90;;;6.32;89.71;98404.91;4979849;28;20368;-82
2020/12/12 04:45:30;;;;;;;12.35;7.70;;;5.50;99.90;;;6.24;89.60;98411.59;4980594;28;20122;-80
2020/12/12 04:47:59;;;;;;;12.43;7.97;;;5.50;99.90;;;6.29;89.59;98410.44;4983035;28;20034;-82
2020/12/12 04:50:28;;;;;;;12.35;7.60;;;5.50;99.90;;;6.21;89.36;98409.56;4992729;28;20026;-81
2020/12/12 04:53:12;;;;;;;12.68;6.70;;;5.50;99.90;;;6.27;89.00;98410.00;4999966;28;20042;-80
2020/12/12 04:55:52;;;;;;;12.55;6.97;;;5.60;99.90;;;6.39;88.76;98420.78;4999252;28;20027;-81
2020/12/12 04:58:28;;;;;;;12.27;7.57;;;5.60;99.90;;;6.38;88.59;98424.78;4978792;28;20517;-81
2020/12/12 05:00:57;;;;;;;12.98;7.50;;;5.50;99.90;;;6.35;88.88;98420.00;4993517;28;20462;-80
2020/12/12 05:03:26;;;;;;;10.68;7.15;;;5.60;99.90;;;6.36;89.07;98416.03;4979465;28;20065;-81
2020/12/12 05:05:53;;;;;;;10.40;7.07;;;5.60;99.90;;;6.29;89.04;98424.31;4978981;28;20038;-80
2020/12/12 05:08:19;;;;;;;10.57;6.70;;;5.60;99.90;;;6.28;88.93;98423.50;4979079;28;20031;-81
2020/12/12 05:10:51;;;;;;;11.90;6.60;;;5.60;99.90;;;6.31;88.77;98422.72;4979309;28;20061;-81
2020/12/12 05:13:21;;;;;;;10.75;6.50;;;5.60;99.90;;;6.39;88.61;98428.34;4994418;28;20034;-81
2020/12/12 05:15:51;;;;;;;10.05;6.30;;;5.60;99.90;;;6.47;88.35;98427.19;4994448;28;20131;-80
2020/12/12 05:18:18;;;;;;;11.52;7.03;;;5.60;99.90;;;6.51;87.98;98428.84;4979681;28;20105;-81
2020/12/12 05:20:45;;;;;;;10.93;6.55;;;5.60;99.90;;;6.52;88.54;98426.88;4980236;28;20038;-79
2020/12/12 05:23:24;;;;;;;10.98;6.88;;;5.60;99.90;;;6.54;88.25;98432.81;4993709;28;20136;-81
2020/12/12 05:25:53;;;;;;;13.65;7.35;;;5.60;99.90;;;6.50;87.80;98427.22;4983659;28;20034;-83
2020/12/12 05:28:24;;;;;;;10.98;7.00;;;5.70;99.90;;;6.57;87.73;98429.25;4980967;28;20030;-80
2020/12/12 05:30:53;;;;;;;11.77;6.90;;;5.70;99.90;;;6.67;87.64;98437.66;4981268;28;20075;-82
2020/12/12 05:33:24;;;;;;;10.68;6.55;;;5.70;99.90;;;6.63;87.57;98436.84;4981219;28;20475;-80
2020/12/12 05:35:52;;;;;;;10.55;6.40;;;5.70;99.90;;;6.61;87.93;98450.31;4979964;28;20043;-80
2020/12/12 05:38:20;;;;;;;11.90;7.10;;;5.60;99.90;;;6.62;87.97;98443.56;4996903;28;20035;-81
2020/12/12 05:40:55;;;;;;;12.13;7.47;;;5.60;99.90;;;6.57;88.02;98445.91;4995829;28;20058;-82
2020/12/12 05:43:36;;;;;;;13.43;8.30;;;5.70;99.90;;;6.61;88.32;98436.44;4994852;28;20038;-80
2020/12/12 05:46:03;;;;;;;13.15;7.88;;;5.60;99.90;;;6.54;88.28;98435.59;4981000;28;20218;-80
2020/12/12 05:48:29;;;;;;;13.48;8.40;;;5.60;99.90;;;6.52;88.37;98440.72;4995459;28;20042;-80
2020/12/12 05:50:56;;;;;;;11.77;7.35;;;5.70;99.90;;;6.55;88.29;98439.97;4995707;28;20030;-80
2020/12/12 05:53:25;;;;;;;13.68;8.50;;;5.60;99.90;;;6.51;88.14;98447.44;4980960;28;20058;-80
2020/12/12 05:55:55;;;;;;;11.75;7.72;;;5.70;99.90;;;6.45;88.75;98448.97;4995224;28;20062;-81
2020/12/12 05:58:23;;;;;;;12.82;8.40;;;5.70;99.90;;;6.55;88.54;98465.69;4979425;28;20042;-82
2020/12/12 06:00:50;;;;;;;15.73;9.15;;;5.70;99.90;;;6.55;88.41;98465.69;4981158;28;20117;-81
2020/12/12 06:03:49;;;;;;;15.20;7.97;;;5.70;99.90;;;6.60;88.78;98470.91;4981058;28;20055;-81
2020/12/12 06:06:23;;;;;;;16.05;9.57;;;5.80;99.90;;;6.59;88.54;98465.72;4980313;28;20118;-82
2020/12/12 06:09:09;;;;;;;14.95;9.10;;;5.70;99.90;;;6.62;88.45;98467.72;4995701;28;20070;-80
2020/12/12 06:11:42;;;;;;;12.98;8.05;;;5.80;99.90;;;6.57;88.67;98468.09;4980962;28;20458;-80
2020/12/12 06:14:09;;;;;;;13.40;8.40;;;5.70;99.90;;;6.62;88.28;98473.28;4994698;28;20098;-81
2020/12/12 06:16:37;;;;;;;14.07;8.40;;;5.70;99.90;;;6.64;88.40;98480.06;4995396;28;20027;-83
2020/12/12 06:19:17;;;;;;;12.85;8.13;;;5.70;99.90;;;6.63;88.26;98480.41;4980620;28;20491;-81
2020/12/12 06:21:49;;;;;;;14.52;9.02;;;5.80;99.90;;;6.55;88.63;98482.31;4979252;28;20041;-82
2020/12/12 06:24:19;;;;;;;14.52;8.52;;;5.80;99.90;;;6.65;88.57;98478.03;4981081;28;20034;-80
2020/12/12 06:27:05;;;;;;;14.35;8.65;;;5.80;99.90;;;6.67;88.25;98482.06;4979936;28;20026;-80
2020/12/12 06:29:48;;;;;;;15.57;9.18;;;5.80;99.90;;;6.62;88.47;98487.13;4980604;28;20311;-81
2020/12/12 06:32:17;;;;;;;12.93;8.15;;;5.80;99.90;;;6.58;88.79;98491.88;4995010;28;20034;-80
2020/12/12 06:34:51;;;;;;;14.07;8.95;;;5.80;99.90;;;6.57;88.77;98484.72;4978493;28;20483;-83
2020/12/12 06:37:35;;;;;;;13.15;8.13;;;5.80;99.90;;;6.57;88.77;98501.38;4979975;28;20045;-82
2020/12/12 06:40:06;;;;;;;13.75;8.52;;;5.80;99.90;;;6.54;88.79;98497.38;4980348;28;20114;-80
2020/12/12 06:42:40;;;;;;;15.88;9.88;;;5.90;99.90;;;6.52;88.98;98499.72;4979516;28;20027;-82
2020/12/12 06:45:18;;;;;;;14.98;9.15;;;5.80;99.90;;;6.60;89.05;98504.19;4994679;28;20534;-82
2020/12/12 06:47:52;;;;;;;15.88;9.50;;;5.90;99.90;;;6.61;88.54;98502.19;4977826;28;20446;-82
2020/12/12 06:50:33;;;;;;;16.42;9.40;;;5.90;99.90;;;6.65;88.56;98505.78;4976622;28;20027;-82
2020/12/12 06:52:59;;;;;;;15.30;9.25;;;5.80;99.90;;;6.62;88.44;98498.22;4977311;28;20447;-81
2020/12/12 06:55:26;;;;;;;14.75;9.25;;;5.80;99.90;;;6.59;88.73;98507.31;4977173;28;20046;-81
2020/12/12 06:57:58;;;;;;;14.05;9.00;;;5.80;99.90;;;6.58;88.72;98517.59;4991948;28;20058;-81
2020/12/12 07:00:33;;;;;;;16.48;9.30;;;5.80;99.90;;;6.63;88.64;98516.47;4975595;28;20029;-81
2020/12/12 07:03:04;;;;;;;15.02;8.75;;;5.80;99.90;;;6.62;88.64;98515.66;4976796;28;20023;-81
2020/12/12 07:05:36;;;;;;;15.32;8.82;;;5.80;99.90;;;6.61;88.85;98527.16;4991330;28;20031;-80
2020/12/12 07:08:07;;;;;;;14.48;9.20;;;5.80;99.90;;;6.52;88.89;98518.38;4976833;28;20031;-81
2020/12/12 07:10:37;;;;;;;17.33;8.88;;;5.80;99.90;;;6.51;88.87;98531.44;4976715;28;20035;-81
2020/12/12 07:13:04;;;;;;;14.30;9.20;;;5.80;99.90;;;6.56;88.94;98525.53;4976454;28;20035;-81
2020/12/12 07:15:38;;;;;;;13.68;8.27;;;5.80;99.90;;;6.57;88.86;98534.66;4991279;28;20455;-80
2020/12/12 07:18:10;;;;;;;15.00;8.85;;;5.80;99.90;;;6.61;88.62;98547.38;4976703;28;20030;-81
2020/12/12 07:20:40;;;;;;;13.65;8.27;;;5.80;99.90;;;6.59;89.02;98546.94;4975450;28;20122;-81
2020/12/12 07:23:07;;;;;;;14.32;8.70;;;5.80;99.90;;;6.62;88.60;98546.19;4979367;28;20027;-82
2020/12/12 07:25:35;;;;;;;14.43;9.15;;;5.80;99.90;;;6.62;88.50;98546.19;4979859;28;20034;-84
2020/12/12 07:28:06;;;;;;;13.20;8.68;;;5.80;99.90;;;6.67;88.56;98553.38;4979050;28;20106;-81
2020/12/12 07:30:33;;;;;;;15.38;9.13;;;5.80;99.90;;;6.64;88.41;98563.25;4980232;28;20055;-81
2020/12/12 07:33:00;;;;;;;14.80;8.93;;;5.90;99.90;;;6.58;88.64;98566.75;4980678;28;20046;-81
2020/12/12 07:35:26;;;;;;;13.65;8.63;;;5.90;99.90;;;6.68;88.39;98564.06;4981466;28;20026;-84
2020/12/12 07:38:05;;;;;;;11.80;8.00;;;5.90;99.90;;;6.74;88.01;98579.19;4980059;28;20065;-83
2020/12/12 07:40:33;;;;;;;14.18;7.80;;;5.90;99.90;;;6.80;88.07;98580.44;4993688;28;20058;-83
2020/12/12 07:43:08;;;;;;;14.20;9.18;;;5.90;99.90;;;6.72;88.06;98586.28;5006684;28;20041;-79
2020/12/12 07:46:03;;;;;;;13.32;8.65;;;5.90;99.90;;;6.87;87.84;98588.03;4997304;28;20186;-82
2020/12/12 07:48:22;;;;;;;12.70;8.73;;;5.90;99.90;;;6.83;87.61;98584.44;4975949;28;20407;-80
2020/12/12 07:50:48;;;;;;;13.80;8.40;;;5.90;99.90;;;6.81;87.59;98595.88;4976476;28;20058;-79
2020/12/12 07:53:19;;;;;;;13.85;8.13;;;6.00;99.90;;;6.93;87.55;98599.56;4977101;28;20035;-80
2020/12/12 07:56:01;;;;;;;13.30;8.52;;;6.00;99.90;;;6.98;87.26;98601.97;4976430;28;20483;-80
2020/12/12 07:58:31;;;;;;;17.38;9.50;;;6.00;99.90;;;6.97;87.39;98598.41;4976573;28;20038;-80
2020/12/12 08:01:04;;;;;;;14.05;8.40;;;6.00;99.90;;;6.91;87.33;98602.72;4976333;28;20085;-81
2020/12/12 08:03:32;;;;;;;13.98;8.25;;;6.00;99.90;;;6.88;87.77;98609.03;4976567;28;20471;-79
2020/12/12 08:06:10;;;;;;;12.55;7.57;;;6.10;99.90;;;6.97;87.89;98614.28;4991297;28;20475;-80
2020/12/12 08:08:38;;;;;;;13.80;8.32;;;6.10;99.90;;;6.90;89.20;98613.00;4993710;28;20066;-83
2020/12/12 08:11:07;;;;;;;15.40;8.70;;;6.10;99.90;;;6.97;89.25;98615.06;4983820;28;20027;-80
2020/12/12 08:13:34;;;;;;;14.77;8.80;;;6.10;99.90;;;6.92;89.90;98622.94;4985710;28;20042;-80
2020/12/12 08:16:22;;;;;;;14.30;8.75;;;6.10;99.90;;;6.99;89.66;98623.81;4985639;28;20093;-81
2020/12/12 08:18:48;;;;;;;13.18;8.68;;;6.10;99.90;;;7.12;89.21;98622.34;4984706;28;20504;-82
2020/12/12 08:21:18;;;;;;;13.13;7.47;;;6.10;99.90;;;7.20;89.37;98637.06;4986304;28;20034;-83
2020/12/12 08:23:45;;;;;;;16.13;8.88;;;6.20;99.90;;;7.26;88.95;98635.50;4985781;28;20035;-82
2020/12/12 08:26:19;;;;;;;15.25;9.02;;;6.20;99.90;;;7.27;89.32;98640.69;4984033;28;20102;-79
2020/12/12 08:28:46;;;;;;;11.90;7.65;;;6.20;99.90;;;7.35;89.25;98650.66;4982891;28;20034;-80
2020/12/12 08:31:19;;;;;;;13.77;8.38;;;6.30;99.90;;;7.41;89.03;98649.16;4983086;28;20023;-80
2020/12/12 08:33:54;;;;;;;11.13;6.88;;;6.30;99.90;;;7.46;88.91;98661.88;4963575;29;20106;-81
2020/12/12 08:36:29;;;;;;;13.93;8.27;;;6.30;99.90;;;7.47;89.03;98659.88;4980938;28;20034;-81
2020/12/12 08:39:06;;;;;;;15.90;8.50;;;6.40;99.90;;;7.52;89.03;98671.44;4982568;28;20077;-79
2020/12/12 08:41:39;;;;;;;11.52;7.20;;;6.40;99.90;;;7.61;88.39;98669.09;4982395;28;20366;-79
2020/12/12 08:44:07;;;;;;;10.48;7.40;;;6.50;99.90;;;7.61;88.39;98668.34;4997481;28;20054;-81
2020/12/12 08:46:34;;;;;;;10.55;7.05;;;6.50;99.90;;;7.68;87.96;98671.13;4997911;28;20058;-82
2020/12/12 08:49:00;;;;;;;13.13;8.65;;;6.60;99.90;;;7.71;87.50;98673.16;4985359;28;20036;-80
2020/12/12 08:51:31;;;;;;;13.82;7.32;;;6.60;99.90;;;7.77;87.35;98674.41;4983808;28;20456;-79
2020/12/12 08:53:59;;;;;;;13.23;7.60;;;6.70;99.90;;;7.87;87.49;98682.78;4982178;28;20053;-82
2020/12/12 08:56:30;;;;;;;12.73;7.97;;;6.70;99.90;;;7.83;87.06;98681.19;4982585;28;20537;-81
2020/12/12 08:59:06;;;;;;;10.43;6.95;;;6.80;99.90;;;7.93;87.53;98681.25;4998652;28;20065;-81
2020/12/12 09:01:42;;;;;;;;;;;6.90;99.90;;;8.07;86.91;98688.88;4983098;28;20030;-80
2020/12/12 09:04:22;;;;;;;13.80;7.40;;;6.90;99.90;;;8.05;86.23;98691.25;4997709;28;19969;-82
2020/12/12 09:06:58;;;;;;;10.90;6.65;;;7.00;99.90;;;8.22;85.91;98698.88;4982404;28;20070;-79
2020/12/12 09:09:29;;;;;;;;;;;7.10;99.90;;;8.29;85.25;98703.69;4982883;28;20435;-80
2020/12/12 09:12:08;;;;;;;9.80;6.35;;;7.20;99.90;;;8.37;85.04;98703.38;4997552;28;19910;-79
2020/12/12 09:14:41;;;;;;;8.10;5.97;;;7.20;99.90;;;8.43;84.43;98709.34;4982994;28;20113;-80
2020/12/12 09:17:10;;;;;;;9.18;6.80;;;7.30;99.90;;;8.39;84.66;98712.09;4982642;28;20030;-80
2020/12/12 09:20:18;;;;;;;9.23;6.57;;;7.30;99.90;;;8.45;84.42;98721.66;5002337;28;20026;-80
2020/12/12 09:22:59;;;;;;;10.95;6.30;;;7.40;99.90;;;8.34;84.23;98698.59;4983548;28;20391;-79
2020/12/12 09:25:25;;;;;;;8.85;6.60;;;7.40;99.90;;;8.37;84.48;98716.47;4997848;28;20030;-81
2020/12/12 09:27:51;;;;;;;7.80;6.35;;;7.40;99.90;;;8.49;83.98;98730.03;4993401;28;20054;-80
2020/12/12 09:30:17;;;;;;;9.10;7.00;;;7.40;99.90;;;8.42;83.74;98727.22;4993788;28;20118;-79
2020/12/12 09:32:43;;;;;;;9.73;6.97;;;7.40;99.90;;;8.35;84.14;98725.19;4993741;28;20026;-82
2020/12/12 09:35:08;;;;;;;10.93;7.13;;;7.40;99.90;;;8.33;84.29;98733.16;4978269;28;20487;-81
2020/12/12 09:37:34;;;;;;;11.95;7.32;;;7.40;99.90;;;8.34;84.41;98747.84;4978980;28;20398;-81
2020/12/12 09:40:00;;;;;;;10.55;6.50;;;7.40;99.90;;;8.32;84.58;98744.63;4993812;28;20089;-82
2020/12/12 09:42:26;;;;;;;9.95;7.22;;;7.40;99.90;;;8.33;84.78;98744.25;4978734;28;20555;-80
2020/12/12 09:44:52;;;;;;;10.95;7.20;;;7.40;99.90;;;8.38;84.52;98743.13;4979353;28;20133;-82
2020/12/12 09:47:18;;;;;;;10.13;6.47;;;7.40;99.90;;;8.45;84.74;98745.91;4982178;28;20030;-82
2020/12/12 09:49:43;;;;;;;10.93;7.13;;;7.50;99.90;;;8.48;84.79;98745.13;4981950;28;20050;-82
2020/12/12 09:52:15;;;;;;;10.27;6.53;;;7.50;99.90;;;8.41;84.98;98759.78;4979809;28;20372;-82
2020/12/12 09:54:41;;;;;;;13.40;6.68;;;7.50;99.90;;;8.39;86.19;98762.19;4981110;28;20027;-82
2020/12/12 09:57:07;;;;;;;9.70;6.97;;;7.50;99.90;;;8.25;87.68;98755.72;4980702;28;20030;-81
2020/12/12 09:59:33;;;;;;;10.45;6.55;;;7.50;99.90;;;8.38;87.25;98751.47;4980768;28;20117;-82
2020/12/12 10:01:59;;;;;;;12.43;7.10;;;7.50;99.90;;;8.27;88.12;98770.03;4982646;28;20059;-78
2020/12/12 10:04:26;;;;;;;10.63;7.32;;;7.50;99.90;;;8.49;87.62;98766.19;4994235;28;20019;-79
2020/12/12 10:06:51;;;;;;;10.88;7.47;;;7.50;99.90;;;8.64;87.07;98775.41;4983546;28;20591;-80
2020/12/12 10:09:17;;;;;;;11.27;7.43;;;7.60;99.90;;;8.54;87.86;98774.16;4981214;28;20026;-82
2020/12/12 10:11:49;;;;;;;10.93;7.05;;;7.60;99.90;;;8.67;87.43;98772.66;4981168;28;20530;-79
2020/12/12 10:14:15;;;;;;;10.35;6.93;;;7.60;99.90;;;8.57;88.05;98769.81;4981105;28;20031;-80
2020/12/12 10:16:41;;;;;;;11.13;7.40;;;7.60;99.90;;;8.49;88.15;98763.41;4981179;28;20073;-83
2020/12/12 10:19:06;;;;;;;12.90;6.45;;;7.60;99.90;;;8.78;87.87;98767.94;4996617;28;20390;-81
2020/12/12 10:21:32;;;;;;;9.75;6.97;;;7.70;99.90;;;8.85;87.49;98770.75;4981314;28;20126;-83
2020/12/12 10:23:58;;;;;;;12.23;6.85;;;7.80;99.90;;;8.99;87.41;98773.56;4981893;28;20034;-82
2020/12/12 10:26:24;;;;;;;10.05;6.68;;;7.90;99.90;;;9.00;86.81;98769.59;4981513;28;20039;-82
2020/12/12 10:28:50;;;;;;;11.52;6.65;;;8.00;99.90;;;9.11;86.97;98769.66;4981961;28;20067;-83
2020/12/12 10:31:18;;;;;;;9.70;5.60;;;8.00;99.90;;;9.15;86.26;98767.66;4994350;28;20014;-77
2020/12/12 10:33:44;;;;;;;9.13;5.60;;;8.10;99.90;;;9.12;86.08;98771.22;4995908;28;20038;-77
2020/12/12 10:36:10;;;;;;;8.35;5.95;;;8.00;99.90;;;9.14;86.45;98785.56;4997516;28;20026;-78
2020/12/12 10:38:37;;;;;;;9.13;5.68;;;8.00;99.90;;;8.88;86.75;98780.31;4983089;28;20035;-80
2020/12/12 10:41:11;;;;;;;11.05;5.80;;;8.00;99.90;;;8.69;86.72;98786.97;4978033;28;20042;-81
2020/12/12 10:43:37;;;;;;;6.65;4.88;;;7.90;99.90;;;8.80;86.02;98771.13;4978109;28;20031;-80
2020/12/12 10:46:03;;;;;;;8.50;5.00;;;7.90;99.90;;;8.89;86.23;98779.88;4978810;28;20038;-80
2020/12/12 10:48:28;;;;;;;7.18;4.97;;;7.90;99.90;;;8.97;85.62;98787.09;4979429;28;20451;-81
2020/12/12 10:50:54;;;;;;;5.85;4.22;;;8.00;99.90;;;9.02;85.03;98789.50;4978633;28;20027;-80
2020/12/12 10:53:20;;;;;;;6.90;4.80;;;8.00;99.90;;;8.91;85.44;98787.88;4978082;28;20524;-80
2020/12/12 10:55:46;;;;;;;5.13;3.90;;;8.00;99.90;;;8.91;84.46;98790.66;4993247;28;20101;-82
2020/12/12 10:58:12;;;;;;;5.90;4.15;;;8.00;99.90;;;8.95;84.17;98797.84;4982157;28;20487;-83